Terminal Aerodrome Forecast
Issued by NWS

Home | Current Version | Previous Version | Graphics & Text | Print | Product List | Glossary On
Versions: 1 2 3 4 5 6 7 8 9 10 11 12 13
000
FTUS43 KIWX 302000 AAA
TAFSBN
TAF AMD
KSBN 302033Z 3021/3118 34010KT 5SM -SHRA OVC025
     FM302200 36014G21KT 3SM SHRA BR VCTS OVC012CB
     FM310300 02014G21KT 3SM RA BR OVC008
     FM311200 04018G24KT 5SM -SHRA OVC015=

USA.gov is the U.S. government's official web portal to all federal, state and local government web resources and services.